createdAt,value
2023-02-19T00:00:30.108Z,2.10
2023-02-19T00:02:52.778Z,2.13
2023-02-19T00:05:14.330Z,1.63
2023-02-19T00:07:35.889Z,1.73
2023-02-19T00:09:57.336Z,1.83
2023-02-19T00:12:20.090Z,1.97
2023-02-19T00:14:41.576Z,2.33
2023-02-19T00:17:03.111Z,2.27
2023-02-19T00:19:24.617Z,3.10
2023-02-19T00:21:46.600Z,3.10
2023-02-19T00:24:10.655Z,2.93
2023-02-19T00:26:33.013Z,2.30
2023-02-19T00:28:55.624Z,2.80
2023-02-19T00:31:26.165Z,2.77
2023-02-19T00:33:48.961Z,2.23
2023-02-19T00:36:10.827Z,2.47
2023-02-19T00:38:36.182Z,2.30
2023-02-19T00:41:00.855Z,3.10
2023-02-19T00:43:22.373Z,3.33
2023-02-19T00:45:43.836Z,3.17
2023-02-19T00:48:05.414Z,3.17
2023-02-19T00:50:26.960Z,4.53
2023-02-19T00:52:48.452Z,4.47
2023-02-19T00:55:09.912Z,4.60
2023-02-19T00:57:31.443Z,4.93
2023-02-19T00:59:52.869Z,3.70
2023-02-19T01:02:14.329Z,4.00
2023-02-19T01:04:35.920Z,3.60
2023-02-19T01:06:57.376Z,3.83
2023-02-19T01:09:20.170Z,4.50
2023-02-19T01:11:41.642Z,3.97
2023-02-19T01:14:03.855Z,4.37
2023-02-19T01:16:25.613Z,4.03
2023-02-19T01:18:47.944Z,3.40
2023-02-19T01:21:15.017Z,3.50
2023-02-19T01:23:36.963Z,3.03
2023-02-19T01:25:58.414Z,2.87
2023-02-19T01:28:19.981Z,2.93
2023-02-19T01:30:41.438Z,2.27
2023-02-19T01:33:08.103Z,2.47
2023-02-19T01:35:29.580Z,2.33
2023-02-19T01:37:51.074Z,2.40
2023-02-19T01:40:12.541Z,2.70
2023-02-19T01:42:34.113Z,2.90
2023-02-19T01:45:22.040Z,3.03
2023-02-19T01:47:43.559Z,2.80
2023-02-19T01:50:05.362Z,3.50
2023-02-19T01:52:36.896Z,3.20
2023-02-19T01:55:01.028Z,3.83
2023-02-19T01:57:27.111Z,3.43
2023-02-19T01:59:53.371Z,4.00
2023-02-19T02:02:14.830Z,3.23
2023-02-19T02:04:36.458Z,3.27
2023-02-19T02:07:01.188Z,3.43
2023-02-19T02:09:46.550Z,3.30
2023-02-19T02:12:08.088Z,3.07
2023-02-19T02:14:33.098Z,2.70
2023-02-19T02:17:13.244Z,3.00
2023-02-19T02:19:53.558Z,3.07
2023-02-19T02:22:25.526Z,3.40
2023-02-19T02:24:52.896Z,3.57
2023-02-19T02:27:38.178Z,3.90
2023-02-19T02:30:21.223Z,4.03
2023-02-19T02:32:53.491Z,3.80
2023-02-19T02:35:19.291Z,3.30
2023-02-19T02:37:43.669Z,3.50
2023-02-19T02:40:07.392Z,4.00
2023-02-19T02:42:28.896Z,3.40
2023-02-19T02:45:09.179Z,4.43
2023-02-19T02:47:42.228Z,3.90
2023-02-19T02:50:06.339Z,4.33
2023-02-19T02:52:46.662Z,5.13
2023-02-19T02:55:11.070Z,3.33
2023-02-19T02:57:32.671Z,3.60
2023-02-19T02:59:54.190Z,3.43
2023-02-19T03:02:20.780Z,4.23
2023-02-19T03:05:23.111Z,3.87
2023-02-19T03:07:55.225Z,4.67
2023-02-19T03:10:20.402Z,4.13
2023-02-19T03:13:03.652Z,3.67
2023-02-19T03:15:48.702Z,3.77
2023-02-19T03:18:30.886Z,3.90
2023-02-19T03:20:57.797Z,3.70
2023-02-19T03:23:42.703Z,4.10
2023-02-19T03:26:04.319Z,3.30
2023-02-19T03:28:49.848Z,3.93
2023-02-19T03:31:16.370Z,4.07
2023-02-19T03:33:40.788Z,3.43
2023-02-19T03:36:07.255Z,3.63
2023-02-19T03:38:41.109Z,3.27
2023-02-19T03:41:05.471Z,2.60
2023-02-19T03:44:10.454Z,2.70
2023-02-19T03:47:03.557Z,2.80
2023-02-19T03:49:35.172Z,2.93
2023-02-19T03:52:13.964Z,3.30
2023-02-19T03:54:42.364Z,3.40
2023-02-19T03:57:14.207Z,3.27
2023-02-19T03:59:55.694Z,3.33
2023-02-19T04:02:26.294Z,2.93
2023-02-19T04:04:57.010Z,2.67
2023-02-19T04:07:18.676Z,2.80
2023-02-19T04:09:46.098Z,2.80
2023-02-19T04:12:09.263Z,2.70
2023-02-19T04:14:38.527Z,3.33
2023-02-19T04:17:04.089Z,3.40
2023-02-19T04:19:28.804Z,3.53
2023-02-19T04:21:53.015Z,2.90
2023-02-19T04:24:21.020Z,3.50
2023-02-19T04:26:44.769Z,3.00
2023-02-19T04:29:06.210Z,3.20
2023-02-19T04:31:31.342Z,3.73
2023-02-19T04:33:52.894Z,3.40
2023-02-19T04:36:14.334Z,3.93
2023-02-19T04:39:10.519Z,3.30
2023-02-19T04:41:32.021Z,3.00
2023-02-19T04:43:53.448Z,3.90
2023-02-19T04:46:14.939Z,3.10
2023-02-19T04:48:36.368Z,3.10
2023-02-19T04:50:57.855Z,3.53
2023-02-19T04:53:19.276Z,3.07
2023-02-19T04:55:40.726Z,3.57
2023-02-19T04:58:02.176Z,3.43
2023-02-19T05:00:23.836Z,3.40
2023-02-19T05:02:45.270Z,2.90
2023-02-19T05:05:06.841Z,2.27
2023-02-19T05:07:28.315Z,2.70
2023-02-19T05:09:49.739Z,3.10
2023-02-19T05:12:11.200Z,3.07
2023-02-19T05:14:32.614Z,2.77
2023-02-19T05:16:54.049Z,2.80
2023-02-19T05:19:15.597Z,3.53
2023-02-19T05:21:37.144Z,2.93
2023-02-19T05:23:58.665Z,2.33
2023-02-19T05:26:23.232Z,2.43
2023-02-19T05:28:52.665Z,1.80
2023-02-19T05:31:14.981Z,2.70
2023-02-19T05:33:38.016Z,2.50
2023-02-19T05:35:59.562Z,2.23
2023-02-19T05:38:22.561Z,2.30
2023-02-19T05:40:45.087Z,2.50
2023-02-19T05:43:07.537Z,2.07
2023-02-19T05:45:28.966Z,2.40
2023-02-19T05:47:50.813Z,2.70
2023-02-19T05:50:12.236Z,2.23
2023-02-19T05:52:33.690Z,2.23
2023-02-19T05:54:55.128Z,2.40
2023-02-19T05:57:16.699Z,2.33
2023-02-19T05:59:38.147Z,2.27
2023-02-19T06:01:59.682Z,2.47
2023-02-19T06:04:21.863Z,2.07
2023-02-19T06:06:43.426Z,2.20
2023-02-19T06:09:05.758Z,2.37
2023-02-19T06:11:29.143Z,2.03
2023-02-19T06:13:50.794Z,2.07
2023-02-19T06:16:12.430Z,2.27
2023-02-19T06:18:34.384Z,2.47
2023-02-19T06:21:04.366Z,2.17
2023-02-19T06:23:28.311Z,2.70
2023-02-19T06:25:49.731Z,2.30
2023-02-19T06:28:11.201Z,2.20
2023-02-19T06:30:32.672Z,2.37
2023-02-19T06:32:54.450Z,2.40
2023-02-19T06:35:16.027Z,2.30
2023-02-19T06:37:37.482Z,2.67
2023-02-19T06:39:58.915Z,2.17
2023-02-19T06:42:20.379Z,2.33
2023-02-19T06:44:41.899Z,2.40
2023-02-19T06:47:03.475Z,2.80
2023-02-19T06:49:24.915Z,1.83
2023-02-19T06:51:46.492Z,2.33
2023-02-19T06:54:08.226Z,3.13
2023-02-19T06:56:32.473Z,2.47
2023-02-19T06:58:55.929Z,2.60
2023-02-19T07:01:17.587Z,1.93
2023-02-19T07:03:39.078Z,2.40
2023-02-19T07:06:00.943Z,2.77
2023-02-19T07:08:22.439Z,3.00
2023-02-19T07:10:44.891Z,2.57
2023-02-19T07:13:06.343Z,2.80
2023-02-19T07:15:27.810Z,2.97
2023-02-19T07:17:49.309Z,2.70
2023-02-19T07:20:11.059Z,3.03
2023-02-19T07:22:32.536Z,3.10
2023-02-19T07:24:54.004Z,3.20
2023-02-19T07:27:15.457Z,3.03
2023-02-19T07:29:36.887Z,3.50
2023-02-19T07:31:58.452Z,3.23
2023-02-19T07:34:20.815Z,3.60
2023-02-19T07:36:42.357Z,3.77
2023-02-19T07:39:04.554Z,3.57
2023-02-19T07:41:27.553Z,3.90
2023-02-19T07:43:49.008Z,4.13
2023-02-19T07:46:13.619Z,3.50
2023-02-19T07:48:36.446Z,4.00
2023-02-19T07:51:00.109Z,3.27
2023-02-19T07:53:22.939Z,3.70
2023-02-19T07:55:44.374Z,4.03
2023-02-19T07:58:06.349Z,4.07
2023-02-19T08:00:27.831Z,3.70
2023-02-19T08:03:01.215Z,3.73
2023-02-19T08:05:22.698Z,3.43
2023-02-19T08:07:44.184Z,3.47
2023-02-19T08:10:24.373Z,3.37
2023-02-19T08:13:04.476Z,3.50
2023-02-19T08:15:25.902Z,3.80
2023-02-19T08:17:47.332Z,4.10
2023-02-19T08:20:09.371Z,3.80
2023-02-19T08:22:30.821Z,3.17
2023-02-19T08:24:52.248Z,3.50
2023-02-19T08:27:13.709Z,3.50
2023-02-19T08:29:35.128Z,3.77
2023-02-19T08:31:56.669Z,3.33
2023-02-19T08:34:18.148Z,4.00
2023-02-19T08:36:39.658Z,3.20
2023-02-19T08:39:01.200Z,3.97
2023-02-19T08:41:22.717Z,3.43
2023-02-19T08:43:44.408Z,3.10
2023-02-19T08:46:07.231Z,4.20
2023-02-19T08:48:29.482Z,5.27
2023-02-19T08:50:58.404Z,5.33
2023-02-19T08:53:19.815Z,4.80
2023-02-19T08:55:41.218Z,4.27
2023-02-19T08:58:02.714Z,3.80
2023-02-19T09:00:24.401Z,4.07
2023-02-19T09:02:45.944Z,4.60
2023-02-19T09:05:07.632Z,4.27
2023-02-19T09:07:29.179Z,3.23
2023-02-19T09:09:50.628Z,4.23
2023-02-19T09:12:12.935Z,4.07
2023-02-19T09:14:35.350Z,4.07
2023-02-19T09:16:56.793Z,4.10
2023-02-19T09:19:18.241Z,3.90
2023-02-19T09:21:39.736Z,4.30
2023-02-19T09:24:01.183Z,3.13
2023-02-19T09:26:23.515Z,3.67
2023-02-19T09:28:45.018Z,3.73
2023-02-19T09:31:08.186Z,3.50
2023-02-19T09:33:29.719Z,3.40
2023-02-19T09:35:51.203Z,3.43
2023-02-19T09:38:12.681Z,2.97
2023-02-19T09:40:36.010Z,2.60
2023-02-19T09:42:57.804Z,2.70
2023-02-19T09:45:23.771Z,2.80
2023-02-19T09:47:45.905Z,3.20
2023-02-19T09:50:10.024Z,2.97
2023-02-19T09:52:36.816Z,3.03
2023-02-19T09:55:02.584Z,3.10
2023-02-19T09:57:25.937Z,2.90
2023-02-19T10:00:31.355Z,2.87
2023-02-19T10:02:54.512Z,2.70
2023-02-19T10:05:16.911Z,2.60
2023-02-19T10:07:44.010Z,3.00
2023-02-19T10:10:14.436Z,2.60
2023-02-19T10:12:35.926Z,2.27
2023-02-19T10:15:10.096Z,2.47
2023-02-19T10:17:34.698Z,2.90
2023-02-19T10:19:57.760Z,3.60
2023-02-19T10:22:20.411Z,3.40
2023-02-19T10:24:43.756Z,3.40
2023-02-19T10:27:10.384Z,3.50
2023-02-19T10:29:31.831Z,2.73
2023-02-19T10:32:18.516Z,3.00
2023-02-19T10:34:39.978Z,3.00
2023-02-19T10:37:01.479Z,2.60
2023-02-19T10:39:22.819Z,2.60
2023-02-19T10:41:44.535Z,2.17
2023-02-19T10:44:14.259Z,2.03
2023-02-19T10:46:50.810Z,1.93
2023-02-19T10:49:30.712Z,1.87
2023-02-19T10:51:55.207Z,1.80
2023-02-19T10:54:25.588Z,1.77
2023-02-19T10:56:47.180Z,1.60
2023-02-19T10:59:28.826Z,1.73
2023-02-19T11:02:15.813Z,1.90
2023-02-19T11:04:38.374Z,1.80
2023-02-19T11:07:18.145Z,1.70
2023-02-19T11:09:45.241Z,1.60
2023-02-19T11:12:09.470Z,1.40
2023-02-19T11:14:33.644Z,1.80
2023-02-19T11:16:57.492Z,1.60
2023-02-19T11:19:26.788Z,1.40
2023-02-19T11:21:48.422Z,1.30
2023-02-19T11:24:41.118Z,1.37
2023-02-19T11:27:07.534Z,2.00
2023-02-19T11:29:34.620Z,1.57
2023-02-19T11:31:56.701Z,1.30
2023-02-19T11:34:21.500Z,1.43
2023-02-19T11:36:42.987Z,1.57
2023-02-19T11:39:16.543Z,1.30
2023-02-19T11:42:11.314Z,1.20
2023-02-19T11:44:44.732Z,1.50
2023-02-19T11:47:40.078Z,1.30
2023-02-19T11:50:19.651Z,1.00
2023-02-19T11:52:53.300Z,1.70
2023-02-19T11:55:51.929Z,2.27
2023-02-19T11:58:40.147Z,2.00
2023-02-19T12:01:15.534Z,1.30
2023-02-19T12:03:57.978Z,1.57
2023-02-19T12:06:36.463Z,1.40
2023-02-19T12:09:21.751Z,2.07
2023-02-19T12:12:04.771Z,1.70
2023-02-19T12:14:44.499Z,1.80
2023-02-19T12:17:21.452Z,2.03
2023-02-19T12:19:48.619Z,1.80
2023-02-19T12:22:29.092Z,1.60
2023-02-19T12:25:18.575Z,1.70
2023-02-19T12:28:07.789Z,2.40
2023-02-19T12:30:47.850Z,1.20
2023-02-19T12:33:21.825Z,2.53
2023-02-19T12:35:58.265Z,46.63
2023-02-19T12:38:35.156Z,1.50
2023-02-19T12:41:13.902Z,4.90
2023-02-19T12:43:37.773Z,1.30
2023-02-19T12:46:21.673Z,0.90
2023-02-19T12:48:49.042Z,0.87
2023-02-19T12:51:41.407Z,3.10
2023-02-19T12:54:28.855Z,0.90
2023-02-19T12:56:54.918Z,1.47
2023-02-19T12:59:23.620Z,1.97
2023-02-19T13:02:01.818Z,1.33
2023-02-19T13:04:55.607Z,1.30
2023-02-19T13:07:26.818Z,1.40
2023-02-19T13:10:30.944Z,1.83
2023-02-19T13:12:56.331Z,5.53
2023-02-19T13:15:24.390Z,1.47
2023-02-19T13:17:57.385Z,1.37
2023-02-19T13:20:27.876Z,0.90
2023-02-19T13:23:19.233Z,1.10
2023-02-19T13:26:10.465Z,0.93
2023-02-19T13:28:45.313Z,0.90
2023-02-19T13:31:21.933Z,0.70
2023-02-19T13:33:49.501Z,1.00
2023-02-19T13:36:14.654Z,1.10
2023-02-19T13:38:42.510Z,1.17
2023-02-19T13:41:04.506Z,1.53
2023-02-19T13:43:38.814Z,3.70
2023-02-19T13:46:08.022Z,1.50
2023-02-19T13:48:35.269Z,3.63
2023-02-19T13:51:19.618Z,1.10
2023-02-19T13:53:41.426Z,2.03
2023-02-19T13:56:03.244Z,9.77
2023-02-19T13:58:33.790Z,4.37
2023-02-19T14:00:55.340Z,1.87
2023-02-19T14:03:29.876Z,6.50
2023-02-19T14:06:02.790Z,1.10
2023-02-19T14:08:46.130Z,24.53
2023-02-19T14:11:08.743Z,2.30
2023-02-19T14:13:52.108Z,1.87
2023-02-19T14:16:30.915Z,5.87
2023-02-19T14:18:52.769Z,6.10
2023-02-19T14:21:34.528Z,5.03
2023-02-19T14:23:58.001Z,1.83
2023-02-19T14:26:20.028Z,7.63
2023-02-19T14:28:45.233Z,3.47
2023-02-19T14:31:17.954Z,2.77
2023-02-19T14:33:46.140Z,1.30
2023-02-19T14:36:29.290Z,3.53
2023-02-19T14:38:55.030Z,1.20
2023-02-19T14:41:18.068Z,0.70
2023-02-19T14:43:40.561Z,1.77
2023-02-19T14:46:13.461Z,2.60
2023-02-19T14:48:41.573Z,0.70
2023-02-19T14:51:14.996Z,1.00
2023-02-19T14:53:41.588Z,5.90
2023-02-19T14:56:04.325Z,5.77
2023-02-19T14:58:33.433Z,1.10
2023-02-19T15:00:54.900Z,0.70
2023-02-19T15:03:37.323Z,1.50
2023-02-19T15:06:03.454Z,1.10
2023-02-19T15:08:36.738Z,2.23
2023-02-19T15:10:58.989Z,3.40
2023-02-19T15:13:27.383Z,3.03
2023-02-19T15:15:49.677Z,0.70
2023-02-19T15:18:21.370Z,1.43
2023-02-19T15:20:43.146Z,1.60
2023-02-19T15:23:07.398Z,1.23
2023-02-19T15:25:38.150Z,1.20
2023-02-19T15:28:28.496Z,1.00
2023-02-19T15:30:51.270Z,1.27
2023-02-19T15:33:20.426Z,1.10
2023-02-19T15:35:41.957Z,0.90
2023-02-19T15:38:03.433Z,0.77
2023-02-19T15:40:30.371Z,1.30
2023-02-19T15:42:52.115Z,0.97
2023-02-19T15:45:23.105Z,1.23
2023-02-19T15:48:04.450Z,1.50
2023-02-19T15:50:29.970Z,1.20
2023-02-19T15:53:07.129Z,1.10
2023-02-19T15:55:57.962Z,1.40
2023-02-19T15:58:28.568Z,2.57
2023-02-19T16:00:57.993Z,2.67
2023-02-19T16:03:23.330Z,1.60
2023-02-19T16:05:45.497Z,1.43
2023-02-19T16:08:08.354Z,2.10
2023-02-19T16:10:32.601Z,2.70
2023-02-19T16:12:59.390Z,1.70
2023-02-19T16:15:20.856Z,2.90
2023-02-19T16:17:44.317Z,1.50
2023-02-19T16:20:06.387Z,1.23
2023-02-19T16:22:40.537Z,1.27
2023-02-19T16:25:04.689Z,1.57
2023-02-19T16:27:38.664Z,2.50
2023-02-19T16:30:25.458Z,2.73
2023-02-19T16:32:47.336Z,8.70
2023-02-19T16:35:35.204Z,11.73
2023-02-19T16:37:59.275Z,7.50
2023-02-19T16:40:20.691Z,6.93
2023-02-19T16:42:51.962Z,6.60
2023-02-19T16:45:13.415Z,5.13
2023-02-19T16:47:38.116Z,7.80
2023-02-19T16:50:02.036Z,7.90
2023-02-19T16:52:23.953Z,6.50
2023-02-19T16:54:47.903Z,5.30
2023-02-19T16:57:09.372Z,4.30
2023-02-19T16:59:30.800Z,4.20
2023-02-19T17:01:52.399Z,4.57
2023-02-19T17:04:15.945Z,4.00
2023-02-19T17:06:37.922Z,3.43
2023-02-19T17:08:59.371Z,3.93
2023-02-19T17:11:20.907Z,4.30
2023-02-19T17:13:43.540Z,4.60
2023-02-19T17:16:05.356Z,5.33
2023-02-19T17:18:27.057Z,4.43
2023-02-19T17:21:13.496Z,5.57
2023-02-19T17:23:35.101Z,5.60
2023-02-19T17:25:56.615Z,9.30
2023-02-19T17:28:18.384Z,11.10
2023-02-19T17:30:40.489Z,9.97
2023-02-19T17:33:02.191Z,7.90
2023-02-19T17:35:23.826Z,6.07
2023-02-19T17:37:45.303Z,6.10
2023-02-19T17:40:31.817Z,7.70
2023-02-19T17:42:54.546Z,8.50
2023-02-19T17:45:16.305Z,8.33
2023-02-19T17:47:37.743Z,7.60
2023-02-19T17:49:59.251Z,5.77
2023-02-19T17:52:20.724Z,5.50
2023-02-19T17:54:42.977Z,12.43
2023-02-19T17:57:04.541Z,14.87
2023-02-19T17:59:26.221Z,9.60
2023-02-19T18:01:47.680Z,6.47
2023-02-19T18:04:09.174Z,5.23
2023-02-19T18:06:30.671Z,4.63
2023-02-19T18:08:53.266Z,9.97
2023-02-19T18:11:15.292Z,7.17
2023-02-19T18:13:36.795Z,6.63
2023-02-19T18:15:58.334Z,5.47
2023-02-19T18:18:20.604Z,5.17
2023-02-19T18:20:42.047Z,5.70
2023-02-19T18:23:03.653Z,5.20
2023-02-19T18:25:25.196Z,4.80
2023-02-19T18:27:47.281Z,4.23
2023-02-19T18:30:09.591Z,4.03
2023-02-19T18:32:31.315Z,9.63
2023-02-19T18:34:55.699Z,9.53
2023-02-19T18:37:17.720Z,3.97
2023-02-19T18:39:39.239Z,4.00
2023-02-19T18:42:01.209Z,5.50
2023-02-19T18:44:24.180Z,5.33
2023-02-19T18:46:45.770Z,9.57
2023-02-19T18:49:07.210Z,17.77
2023-02-19T18:51:28.739Z,15.77
2023-02-19T18:53:50.796Z,14.57
2023-02-19T18:56:12.269Z,10.90
2023-02-19T18:58:33.860Z,5.13
2023-02-19T19:00:55.344Z,5.70
2023-02-19T19:03:16.906Z,5.60
2023-02-19T19:05:38.427Z,4.13
2023-02-19T19:08:01.827Z,5.33
2023-02-19T19:10:23.747Z,7.30
2023-02-19T19:12:45.233Z,8.93
2023-02-19T19:15:06.908Z,6.40
2023-02-19T19:17:28.373Z,4.77
2023-02-19T19:19:49.841Z,4.63
2023-02-19T19:22:11.683Z,4.10
2023-02-19T19:24:33.100Z,4.10
2023-02-19T19:26:54.595Z,3.80
2023-02-19T19:29:18.599Z,4.97
2023-02-19T19:31:40.169Z,4.87
2023-02-19T19:34:01.698Z,5.43
2023-02-19T19:36:23.114Z,5.27
2023-02-19T19:38:44.575Z,6.90
2023-02-19T19:41:06.040Z,6.73
2023-02-19T19:43:32.046Z,6.00
2023-02-19T19:45:54.125Z,5.50
2023-02-19T19:48:15.687Z,6.40
2023-02-19T19:50:37.190Z,6.80
2023-02-19T19:52:58.690Z,5.07
2023-02-19T19:55:21.682Z,5.93
2023-02-19T19:57:43.233Z,5.50
2023-02-19T20:00:05.288Z,7.27
2023-02-19T20:02:26.871Z,6.10
2023-02-19T20:04:48.358Z,7.50
2023-02-19T20:07:10.228Z,7.37
2023-02-19T20:09:31.802Z,8.10
2023-02-19T20:11:53.852Z,8.13
2023-02-19T20:14:17.007Z,7.90
2023-02-19T20:16:38.832Z,8.63
2023-02-19T20:19:00.543Z,8.83
2023-02-19T20:21:22.067Z,8.03
2023-02-19T20:23:43.558Z,7.97
2023-02-19T20:26:05.497Z,8.87
2023-02-19T20:28:26.966Z,9.67
2023-02-19T20:30:48.505Z,8.43
2023-02-19T20:33:10.084Z,8.43
2023-02-19T20:35:31.881Z,9.70
2023-02-19T20:37:54.517Z,8.73
2023-02-19T20:40:18.346Z,9.00
2023-02-19T20:42:39.911Z,9.63
2023-02-19T20:45:01.484Z,8.93
2023-02-19T20:47:23.198Z,7.60
2023-02-19T20:49:46.437Z,9.13
2023-02-19T20:52:08.113Z,9.53
2023-02-19T20:54:32.086Z,8.97
2023-02-19T20:56:55.511Z,8.07
2023-02-19T20:59:22.592Z,9.10
2023-02-19T21:01:44.326Z,9.83
2023-02-19T21:04:06.224Z,8.17
2023-02-19T21:06:27.741Z,9.30
2023-02-19T21:08:49.247Z,8.67
2023-02-19T21:11:10.736Z,9.97
2023-02-19T21:13:32.203Z,9.60
2023-02-19T21:15:53.671Z,8.30
2023-02-19T21:18:16.379Z,9.27
2023-02-19T21:20:37.797Z,10.03
2023-02-19T21:22:59.365Z,10.00
2023-02-19T21:25:21.058Z,9.67
2023-02-19T21:27:42.520Z,9.07
2023-02-19T21:30:06.125Z,10.10
2023-02-19T21:32:27.674Z,9.40
2023-02-19T21:34:49.205Z,10.47
2023-02-19T21:37:10.759Z,9.83
2023-02-19T21:39:33.580Z,10.13
2023-02-19T21:41:55.080Z,10.33
2023-02-19T21:44:17.185Z,9.13
2023-02-19T21:46:38.646Z,10.57
2023-02-19T21:49:01.033Z,10.77
2023-02-19T21:51:29.391Z,11.17
2023-02-19T21:53:50.887Z,10.70
2023-02-19T21:56:22.552Z,9.77
2023-02-19T21:58:44.000Z,10.17
2023-02-19T22:01:05.456Z,9.90
2023-02-19T22:03:26.985Z,10.93
2023-02-19T22:05:48.470Z,10.97
2023-02-19T22:08:09.952Z,11.60
2023-02-19T22:10:31.510Z,11.07
2023-02-19T22:12:52.956Z,11.53
2023-02-19T22:15:15.209Z,12.10
2023-02-19T22:17:36.682Z,11.43
2023-02-19T22:19:58.170Z,11.77
2023-02-19T22:22:19.636Z,10.20
2023-02-19T22:24:41.100Z,10.93
2023-02-19T22:27:02.521Z,11.40
2023-02-19T22:29:25.077Z,11.73
2023-02-19T22:31:46.693Z,10.03
2023-02-19T22:34:09.074Z,9.97
2023-02-19T22:36:33.030Z,9.63
2023-02-19T22:38:54.725Z,9.60
2023-02-19T22:41:17.640Z,9.77
2023-02-19T22:43:39.157Z,10.20
2023-02-19T22:46:00.648Z,10.50
2023-02-19T22:48:30.057Z,10.37
2023-02-19T22:50:52.657Z,9.57
2023-02-19T22:53:14.102Z,9.83
2023-02-19T22:55:35.580Z,9.23
2023-02-19T22:57:57.064Z,10.17
2023-02-19T23:00:21.006Z,10.50
2023-02-19T23:02:42.472Z,8.53
2023-02-19T23:05:04.030Z,8.47
2023-02-19T23:07:25.573Z,8.13
2023-02-19T23:09:47.028Z,8.93
2023-02-19T23:12:11.201Z,8.60
2023-02-19T23:14:33.337Z,9.93
2023-02-19T23:16:54.839Z,8.27
2023-02-19T23:19:16.441Z,9.23
2023-02-19T23:21:39.383Z,8.77
2023-02-19T23:24:01.977Z,9.43
2023-02-19T23:26:23.457Z,8.63
2023-02-19T23:28:45.925Z,7.80
2023-02-19T23:31:07.488Z,9.57
2023-02-19T23:33:28.994Z,9.47
2023-02-19T23:35:50.460Z,9.07
2023-02-19T23:38:11.971Z,9.67
2023-02-19T23:40:33.429Z,9.80
2023-02-19T23:42:56.763Z,8.90
2023-02-19T23:45:18.370Z,9.80
2023-02-19T23:47:39.819Z,9.20
2023-02-19T23:50:01.260Z,9.43
2023-02-19T23:52:22.703Z,9.53
2023-02-19T23:54:44.168Z,6.97
2023-02-19T23:57:05.648Z,7.37
2023-02-19T23:59:27.155Z,6.10
